NCAR-RAP Real-Time Weather Data

Output produced by METARs form (08 May 2021  00:36 UTC)
found at http://weather.rap.ucar.edu/surface/
 
KCHO 072353Z 32006KT 10SM CLR 12/04 A2991 RMK AO2 SLP126 60014 T01170044 10156 20106 53017
KCHO 072253Z 33008G17KT 300V360 10SM FEW046 BKN060 OVC075 14/06 A2988 RMK AO2 SLP118 T01390061
KCHO 072153Z 34004KT 10SM FEW047 FEW060 14/09 A2986 RMK AO2 SLP111 T01440089
KCHO 072053Z 00000KT 10SM SCT065 OVC090 12/09 A2986 RMK AO2 LTG DSNT S RAB09E28 SLP109 P0002 60014 T01170089 55005
KCHO 071953Z 00000KT 10SM FEW038 BKN075 OVC120 12/08 A2985 RMK AO2 LTG DSNT NW RAB22E48 SLP107 P0012 T01170078
KCHO 071939Z VRB03KT 3SM RA FEW014 BKN042 OVC070 11/07 A2986 RMK AO2 LTG DSNT NW RAB22 P0012 T01060067
KCHO 071927Z VRB05KT 1 1/2SM +RA FEW015 SCT034 BKN047 12/08 A2987 RMK AO2 RAB22 P0008 T01170083
KCHO 071853Z 17005KT 10SM SCT080 BKN095 13/09 A2986 RMK AO2 RAB1759E19 SLP111 P0000 T01330089
KCHO 071753Z 17006KT 10SM FEW043 OVC050 13/09 A2987 RMK AO2 RAE53 SLP114 P0004 60005 T01280089 10150 20089 58004
KCHO 071653Z VRB06KT 5SM -RA BKN050 OVC055 13/09 A2989 RMK AO2 SLP121 P0001 T01280089
KCHO 071553Z 22005KT 10SM -RA FEW038 SCT045 OVC060 14/07 A2990 RMK AO2 RAB31 SLP122 P0000 T01440067
KCHO 071453Z VRB03KT 10SM FEW039 BKN070 OVC100 14/07 A2989 RMK AO2 RAB25E41 SLP118 P0000 60000 T01440067 55001
KCHO 071353Z 32003KT 10SM OVC055 14/07 A2988 RMK AO2 SLP116 T01390067
KCHO 071253Z 00000KT 10SM BKN055 BKN075 BKN100 11/06 A2989 RMK AO2 SLP119 T01110061
KCHO 071153Z 00000KT 10SM OVC060 09/06 A2989 RMK AO2 SLP119 T00890061 10094 20072 55004
KCHO 071053Z 00000KT 10SM BKN060 08/06 A2989 RMK AO2 SLP118 T00830056
KCHO 070953Z 00000KT 10SM FEW065 07/06 A2990 RMK AO2 SLP121 T00720056
KCHO 070853Z AUTO 00000KT 10SM OVC070 08/06 A2990 RMK AO2 SLP123 T00780056 56013